sensor_id;sensor_type;location;lat;lon;timestamp;P1;durP1;ratioP1;P2;durP2;ratioP2
25479;SDS011;13393;49.378;8.686;2023-06-10T00:01:08;4.40;;;4.00;;
25479;SDS011;13393;49.378;8.686;2023-06-10T00:03:35;4.30;;;3.90;;
25479;SDS011;13393;49.378;8.686;2023-06-10T00:06:01;6.38;;;3.72;;
25479;SDS011;13393;49.378;8.686;2023-06-10T00:08:28;4.13;;;3.72;;
25479;SDS011;13393;49.378;8.686;2023-06-10T00:10:56;5.25;;;4.05;;
25479;SDS011;13393;49.378;8.686;2023-06-10T00:13:24;4.60;;;4.20;;
25479;SDS011;13393;49.378;8.686;2023-06-10T00:15:50;4.82;;;3.92;;
25479;SDS011;13393;49.378;8.686;2023-06-10T00:18:16;4.63;;;4.20;;
25479;SDS011;13393;49.378;8.686;2023-06-10T00:20:42;5.43;;;3.90;;
25479;SDS011;13393;49.378;8.686;2023-06-10T00:23:09;4.03;;;3.60;;
25479;SDS011;13393;49.378;8.686;2023-06-10T00:25:36;6.72;;;4.07;;
25479;SDS011;13393;49.378;8.686;2023-06-10T00:28:02;4.40;;;4.00;;
25479;SDS011;13393;49.378;8.686;2023-06-10T00:30:30;5.97;;;3.78;;
25479;SDS011;13393;49.378;8.686;2023-06-10T00:32:56;4.40;;;4.00;;
25479;SDS011;13393;49.378;8.686;2023-06-10T00:35:23;5.97;;;3.90;;
25479;SDS011;13393;49.378;8.686;2023-06-10T00:37:49;4.00;;;3.63;;
25479;SDS011;13393;49.378;8.686;2023-06-10T00:40:15;4.25;;;3.88;;
25479;SDS011;13393;49.378;8.686;2023-06-10T00:42:42;5.20;;;4.00;;
25479;SDS011;13393;49.378;8.686;2023-06-10T00:45:08;4.47;;;4.07;;
25479;SDS011;13393;49.378;8.686;2023-06-10T00:47:36;6.65;;;3.97;;
25479;SDS011;13393;49.378;8.686;2023-06-10T00:50:03;4.18;;;3.80;;
25479;SDS011;13393;49.378;8.686;2023-06-10T00:52:30;4.10;;;3.80;;
25479;SDS011;13393;49.378;8.686;2023-06-10T00:54:56;4.75;;;3.63;;
25479;SDS011;13393;49.378;8.686;2023-06-10T00:57:24;4.85;;;3.83;;
25479;SDS011;13393;49.378;8.686;2023-06-10T00:59:50;4.03;;;3.70;;
25479;SDS011;13393;49.378;8.686;2023-06-10T01:02:17;5.82;;;3.92;;
25479;SDS011;13393;49.378;8.686;2023-06-10T01:04:44;6.85;;;4.03;;
25479;SDS011;13393;49.378;8.686;2023-06-10T01:07:14;4.55;;;4.13;;
25479;SDS011;13393;49.378;8.686;2023-06-10T01:09:45;4.22;;;3.83;;
25479;SDS011;13393;49.378;8.686;2023-06-10T01:12:16;4.10;;;3.80;;
25479;SDS011;13393;49.378;8.686;2023-06-10T01:14:45;4.72;;;3.80;;
25479;SDS011;13393;49.378;8.686;2023-06-10T01:17:11;4.25;;;3.85;;
25479;SDS011;13393;49.378;8.686;2023-06-10T01:19:37;6.88;;;3.97;;
25479;SDS011;13393;49.378;8.686;2023-06-10T01:22:05;4.22;;;3.70;;
25479;SDS011;13393;49.378;8.686;2023-06-10T01:24:32;3.90;;;3.60;;
25479;SDS011;13393;49.378;8.686;2023-06-10T01:26:59;7.68;;;3.90;;
25479;SDS011;13393;49.378;8.686;2023-06-10T01:29:28;4.18;;;3.78;;
25479;SDS011;13393;49.378;8.686;2023-06-10T01:31:59;6.82;;;4.28;;
25479;SDS011;13393;49.378;8.686;2023-06-10T01:34:27;4.18;;;3.88;;
25479;SDS011;13393;49.378;8.686;2023-06-10T01:36:54;4.60;;;3.80;;
25479;SDS011;13393;49.378;8.686;2023-06-10T01:39:23;4.25;;;3.85;;
25479;SDS011;13393;49.378;8.686;2023-06-10T01:41:50;5.25;;;3.85;;
25479;SDS011;13393;49.378;8.686;2023-06-10T01:44:18;4.70;;;4.20;;
25479;SDS011;13393;49.378;8.686;2023-06-10T01:46:45;4.22;;;3.83;;
25479;SDS011;13393;49.378;8.686;2023-06-10T01:49:11;4.80;;;3.75;;
25479;SDS011;13393;49.378;8.686;2023-06-10T01:51:38;4.07;;;3.63;;
25479;SDS011;13393;49.378;8.686;2023-06-10T01:54:04;4.35;;;3.95;;
25479;SDS011;13393;49.378;8.686;2023-06-10T01:56:32;4.85;;;4.05;;
25479;SDS011;13393;49.378;8.686;2023-06-10T01:58:58;4.82;;;3.67;;
25479;SDS011;13393;49.378;8.686;2023-06-10T02:01:25;4.32;;;3.92;;
25479;SDS011;13393;49.378;8.686;2023-06-10T02:03:51;3.53;;;3.22;;
25479;SDS011;13393;49.378;8.686;2023-06-10T02:06:18;4.60;;;3.63;;
25479;SDS011;13393;49.378;8.686;2023-06-10T02:08:44;4.68;;;3.65;;
25479;SDS011;13393;49.378;8.686;2023-06-10T02:11:10;4.22;;;3.83;;
25479;SDS011;13393;49.378;8.686;2023-06-10T02:13:38;3.75;;;3.40;;
25479;SDS011;13393;49.378;8.686;2023-06-10T02:16:05;3.53;;;3.22;;
25479;SDS011;13393;49.378;8.686;2023-06-10T02:18:31;4.00;;;3.70;;
25479;SDS011;13393;49.378;8.686;2023-06-10T02:20:58;3.58;;;3.28;;
25479;SDS011;13393;49.378;8.686;2023-06-10T02:23:25;4.38;;;3.50;;
25479;SDS011;13393;49.378;8.686;2023-06-10T02:25:51;5.07;;;3.60;;
25479;SDS011;13393;49.378;8.686;2023-06-10T02:28:17;3.83;;;3.42;;
25479;SDS011;13393;49.378;8.686;2023-06-10T02:30:45;3.80;;;3.45;;
25479;SDS011;13393;49.378;8.686;2023-06-10T02:33:11;5.35;;;3.50;;
25479;SDS011;13393;49.378;8.686;2023-06-10T02:35:38;4.03;;;3.60;;
25479;SDS011;13393;49.378;8.686;2023-06-10T02:38:04;3.47;;;3.20;;
25479;SDS011;13393;49.378;8.686;2023-06-10T02:40:31;4.00;;;3.20;;
25479;SDS011;13393;49.378;8.686;2023-06-10T02:42:57;4.53;;;3.83;;
25479;SDS011;13393;49.378;8.686;2023-06-10T02:45:24;3.70;;;3.35;;
25479;SDS011;13393;49.378;8.686;2023-06-10T02:47:51;4.03;;;3.67;;
25479;SDS011;13393;49.378;8.686;2023-06-10T02:50:18;4.03;;;3.70;;
25479;SDS011;13393;49.378;8.686;2023-06-10T02:52:44;4.20;;;3.80;;
25479;SDS011;13393;49.378;8.686;2023-06-10T02:55:11;5.57;;;4.30;;
25479;SDS011;13393;49.378;8.686;2023-06-10T02:57:37;5.68;;;4.95;;
25479;SDS011;13393;49.378;8.686;2023-06-10T03:00:04;6.65;;;4.60;;
25479;SDS011;13393;49.378;8.686;2023-06-10T03:02:34;7.72;;;4.15;;
25479;SDS011;13393;49.378;8.686;2023-06-10T03:05:05;4.60;;;4.07;;
25479;SDS011;13393;49.378;8.686;2023-06-10T03:07:34;5.90;;;4.57;;
25479;SDS011;13393;49.378;8.686;2023-06-10T03:10:01;5.13;;;4.40;;
25479;SDS011;13393;49.378;8.686;2023-06-10T03:12:27;5.30;;;4.85;;
25479;SDS011;13393;49.378;8.686;2023-06-10T03:14:53;5.38;;;4.60;;
25479;SDS011;13393;49.378;8.686;2023-06-10T03:17:19;8.00;;;4.43;;
25479;SDS011;13393;49.378;8.686;2023-06-10T03:19:46;5.10;;;4.55;;
25479;SDS011;13393;49.378;8.686;2023-06-10T03:22:14;4.75;;;4.35;;
25479;SDS011;13393;49.378;8.686;2023-06-10T03:24:41;5.90;;;4.57;;
25479;SDS011;13393;49.378;8.686;2023-06-10T03:27:09;5.40;;;4.88;;
25479;SDS011;13393;49.378;8.686;2023-06-10T03:29:35;5.50;;;4.38;;
25479;SDS011;13393;49.378;8.686;2023-06-10T03:32:02;6.05;;;4.78;;
25479;SDS011;13393;49.378;8.686;2023-06-10T03:34:28;5.15;;;4.65;;
25479;SDS011;13393;49.378;8.686;2023-06-10T03:36:55;5.00;;;4.50;;
25479;SDS011;13393;49.378;8.686;2023-06-10T03:39:23;5.03;;;4.53;;
25479;SDS011;13393;49.378;8.686;2023-06-10T03:41:50;5.68;;;4.65;;
25479;SDS011;13393;49.378;8.686;2023-06-10T03:44:16;5.40;;;4.90;;
25479;SDS011;13393;49.378;8.686;2023-06-10T03:46:43;5.55;;;5.05;;
25479;SDS011;13393;49.378;8.686;2023-06-10T03:49:09;5.85;;;3.97;;
25479;SDS011;13393;49.378;8.686;2023-06-10T03:51:35;4.95;;;4.45;;
25479;SDS011;13393;49.378;8.686;2023-06-10T03:54:02;5.57;;;4.63;;
25479;SDS011;13393;49.378;8.686;2023-06-10T03:56:30;5.38;;;4.60;;
25479;SDS011;13393;49.378;8.686;2023-06-10T03:58:57;6.45;;;5.10;;
25479;SDS011;13393;49.378;8.686;2023-06-10T04:01:23;5.82;;;4.75;;
25479;SDS011;13393;49.378;8.686;2023-06-10T04:03:49;7.20;;;5.60;;
25479;SDS011;13393;49.378;8.686;2023-06-10T04:06:19;11.00;;;9.30;;
25479;SDS011;13393;49.378;8.686;2023-06-10T04:08:47;5.70;;;4.68;;
25479;SDS011;13393;49.378;8.686;2023-06-10T04:11:14;5.65;;;4.40;;
25479;SDS011;13393;49.378;8.686;2023-06-10T04:13:41;5.03;;;4.53;;
25479;SDS011;13393;49.378;8.686;2023-06-10T04:16:08;5.20;;;4.60;;
25479;SDS011;13393;49.378;8.686;2023-06-10T04:18:34;5.40;;;4.82;;
25479;SDS011;13393;49.378;8.686;2023-06-10T04:21:01;5.68;;;5.18;;
25479;SDS011;13393;49.378;8.686;2023-06-10T04:23:27;6.13;;;5.15;;
25479;SDS011;13393;49.378;8.686;2023-06-10T04:25:54;5.57;;;5.05;;
25479;SDS011;13393;49.378;8.686;2023-06-10T04:28:20;6.07;;;5.47;;
25479;SDS011;13393;49.378;8.686;2023-06-10T04:30:48;5.82;;;5.03;;
25479;SDS011;13393;49.378;8.686;2023-06-10T04:33:14;6.65;;;5.10;;
25479;SDS011;13393;49.378;8.686;2023-06-10T04:35:41;6.07;;;5.13;;
25479;SDS011;13393;49.378;8.686;2023-06-10T04:38:07;8.90;;;5.25;;
25479;SDS011;13393;49.378;8.686;2023-06-10T04:40:34;6.03;;;5.35;;
25479;SDS011;13393;49.378;8.686;2023-06-10T04:43:00;5.95;;;5.43;;
25479;SDS011;13393;49.378;8.686;2023-06-10T04:45:26;5.55;;;5.00;;
25479;SDS011;13393;49.378;8.686;2023-06-10T04:47:56;7.13;;;4.80;;
25479;SDS011;13393;49.378;8.686;2023-06-10T04:50:23;5.53;;;5.03;;
25479;SDS011;13393;49.378;8.686;2023-06-10T04:52:49;6.18;;;5.05;;
25479;SDS011;13393;49.378;8.686;2023-06-10T04:55:15;5.70;;;4.40;;
25479;SDS011;13393;49.378;8.686;2023-06-10T04:57:42;6.38;;;4.40;;
25479;SDS011;13393;49.378;8.686;2023-06-10T05:00:08;6.53;;;4.85;;
25479;SDS011;13393;49.378;8.686;2023-06-10T05:02:35;6.03;;;5.32;;
25479;SDS011;13393;49.378;8.686;2023-06-10T05:05:03;5.28;;;4.78;;
25479;SDS011;13393;49.378;8.686;2023-06-10T05:07:29;5.75;;;5.18;;
25479;SDS011;13393;49.378;8.686;2023-06-10T05:09:55;7.35;;;5.53;;
25479;SDS011;13393;49.378;8.686;2023-06-10T05:12:22;6.65;;;5.32;;
25479;SDS011;13393;49.378;8.686;2023-06-10T05:14:48;6.95;;;5.55;;
25479;SDS011;13393;49.378;8.686;2023-06-10T05:17:14;10.48;;;5.32;;
25479;SDS011;13393;49.378;8.686;2023-06-10T05:19:41;6.03;;;5.28;;
25479;SDS011;13393;49.378;8.686;2023-06-10T05:22:09;5.72;;;5.20;;
25479;SDS011;13393;49.378;8.686;2023-06-10T05:24:36;5.82;;;5.22;;
25479;SDS011;13393;49.378;8.686;2023-06-10T05:27:02;5.80;;;5.00;;
25479;SDS011;13393;49.378;8.686;2023-06-10T05:29:28;7.18;;;5.68;;
25479;SDS011;13393;49.378;8.686;2023-06-10T05:31:55;5.60;;;5.10;;
25479;SDS011;13393;49.378;8.686;2023-06-10T05:34:22;6.07;;;5.47;;
25479;SDS011;13393;49.378;8.686;2023-06-10T05:36:49;5.82;;;5.20;;
25479;SDS011;13393;49.378;8.686;2023-06-10T05:39:16;6.70;;;5.10;;
25479;SDS011;13393;49.378;8.686;2023-06-10T05:41:43;8.15;;;5.65;;
25479;SDS011;13393;49.378;8.686;2023-06-10T05:44:09;6.00;;;5.35;;
25479;SDS011;13393;49.378;8.686;2023-06-10T05:46:35;7.25;;;5.28;;
25479;SDS011;13393;49.378;8.686;2023-06-10T05:49:02;5.35;;;4.85;;
25479;SDS011;13393;49.378;8.686;2023-06-10T05:51:29;5.93;;;5.00;;
25479;SDS011;13393;49.378;8.686;2023-06-10T05:53:55;6.97;;;5.30;;
25479;SDS011;13393;49.378;8.686;2023-06-10T05:56:23;9.60;;;5.57;;
25479;SDS011;13393;49.378;8.686;2023-06-10T05:58:50;6.55;;;5.45;;
25479;SDS011;13393;49.378;8.686;2023-06-10T06:01:17;5.75;;;5.05;;
25479;SDS011;13393;49.378;8.686;2023-06-10T06:03:43;7.93;;;5.05;;
25479;SDS011;13393;49.378;8.686;2023-06-10T06:06:09;7.05;;;5.75;;
25479;SDS011;13393;49.378;8.686;2023-06-10T06:08:35;7.75;;;4.85;;
25479;SDS011;13393;49.378;8.686;2023-06-10T06:11:02;7.30;;;5.28;;
25479;SDS011;13393;49.378;8.686;2023-06-10T06:13:29;5.85;;;5.35;;
25479;SDS011;13393;49.378;8.686;2023-06-10T06:15:56;6.30;;;4.85;;
25479;SDS011;13393;49.378;8.686;2023-06-10T06:18:22;6.13;;;5.30;;
25479;SDS011;13393;49.378;8.686;2023-06-10T06:20:49;8.02;;;5.20;;
25479;SDS011;13393;49.378;8.686;2023-06-10T06:23:15;5.28;;;4.78;;
25479;SDS011;13393;49.378;8.686;2023-06-10T06:25:43;8.10;;;4.93;;
25479;SDS011;13393;49.378;8.686;2023-06-10T06:28:09;6.15;;;5.20;;
25479;SDS011;13393;49.378;8.686;2023-06-10T06:30:37;8.75;;;5.30;;
25479;SDS011;13393;49.378;8.686;2023-06-10T06:33:03;5.93;;;4.40;;
25479;SDS011;13393;49.378;8.686;2023-06-10T06:35:30;5.60;;;4.63;;
25479;SDS011;13393;49.378;8.686;2023-06-10T06:37:57;4.40;;;4.00;;
25479;SDS011;13393;49.378;8.686;2023-06-10T06:40:23;6.00;;;3.92;;
25479;SDS011;13393;49.378;8.686;2023-06-10T06:42:50;5.45;;;3.85;;
25479;SDS011;13393;49.378;8.686;2023-06-10T06:45:16;4.13;;;3.72;;
25479;SDS011;13393;49.378;8.686;2023-06-10T06:47:44;8.60;;;3.97;;
25479;SDS011;13393;49.378;8.686;2023-06-10T06:50:10;4.00;;;3.60;;
25479;SDS011;13393;49.378;8.686;2023-06-10T06:52:37;3.65;;;3.35;;
25479;SDS011;13393;49.378;8.686;2023-06-10T06:55:03;4.80;;;3.65;;
25479;SDS011;13393;49.378;8.686;2023-06-10T06:57:30;4.10;;;3.70;;
25479;SDS011;13393;49.378;8.686;2023-06-10T06:59:56;4.70;;;3.78;;
25479;SDS011;13393;49.378;8.686;2023-06-10T07:02:22;3.88;;;3.58;;
25479;SDS011;13393;49.378;8.686;2023-06-10T07:04:50;4.13;;;3.72;;
25479;SDS011;13393;49.378;8.686;2023-06-10T07:07:20;4.63;;;3.78;;
25479;SDS011;13393;49.378;8.686;2023-06-10T07:09:46;5.10;;;3.72;;
25479;SDS011;13393;49.378;8.686;2023-06-10T07:12:13;3.88;;;3.45;;
25479;SDS011;13393;49.378;8.686;2023-06-10T07:14:39;4.30;;;4.00;;
25479;SDS011;13393;49.378;8.686;2023-06-10T07:17:05;3.83;;;3.55;;
25479;SDS011;13393;49.378;8.686;2023-06-10T07:19:32;3.67;;;3.38;;
25479;SDS011;13393;49.378;8.686;2023-06-10T07:21:59;3.90;;;3.55;;
25479;SDS011;13393;49.378;8.686;2023-06-10T07:24:26;3.75;;;3.42;;
25479;SDS011;13393;49.378;8.686;2023-06-10T07:26:52;3.90;;;3.60;;
25479;SDS011;13393;49.378;8.686;2023-06-10T07:29:18;4.32;;;3.85;;
25479;SDS011;13393;49.378;8.686;2023-06-10T07:31:45;3.72;;;3.42;;
25479;SDS011;13393;49.378;8.686;2023-06-10T07:34:11;4.43;;;4.03;;
25479;SDS011;13393;49.378;8.686;2023-06-10T07:36:37;4.55;;;3.85;;
25479;SDS011;13393;49.378;8.686;2023-06-10T07:39:05;4.20;;;3.83;;
25479;SDS011;13393;49.378;8.686;2023-06-10T07:41:32;4.38;;;3.97;;
25479;SDS011;13393;49.378;8.686;2023-06-10T07:43:58;3.90;;;3.50;;
25479;SDS011;13393;49.378;8.686;2023-06-10T07:46:24;5.32;;;3.78;;
25479;SDS011;13393;49.378;8.686;2023-06-10T07:48:54;6.43;;;4.43;;
25479;SDS011;13393;49.378;8.686;2023-06-10T07:51:20;3.92;;;3.63;;
25479;SDS011;13393;49.378;8.686;2023-06-10T07:53:47;4.18;;;3.88;;
25479;SDS011;13393;49.378;8.686;2023-06-10T07:56:14;5.85;;;3.85;;
25479;SDS011;13393;49.378;8.686;2023-06-10T07:58:41;4.38;;;3.97;;
25479;SDS011;13393;49.378;8.686;2023-06-10T08:01:07;4.65;;;4.25;;
25479;SDS011;13393;49.378;8.686;2023-06-10T08:03:34;4.03;;;3.72;;
25479;SDS011;13393;49.378;8.686;2023-06-10T08:06:00;3.92;;;3.63;;
25479;SDS011;13393;49.378;8.686;2023-06-10T08:08:27;3.97;;;3.67;;
25479;SDS011;13393;49.378;8.686;2023-06-10T08:10:53;4.22;;;3.80;;
25479;SDS011;13393;49.378;8.686;2023-06-10T08:13:21;4.50;;;4.10;;
25479;SDS011;13393;49.378;8.686;2023-06-10T08:15:47;3.90;;;3.60;;
25479;SDS011;13393;49.378;8.686;2023-06-10T08:18:15;4.72;;;4.32;;
25479;SDS011;13393;49.378;8.686;2023-06-10T08:20:42;5.90;;;4.10;;
25479;SDS011;13393;49.378;8.686;2023-06-10T08:23:08;5.38;;;3.70;;
25479;SDS011;13393;49.378;8.686;2023-06-10T08:25:34;4.40;;;4.00;;
25479;SDS011;13393;49.378;8.686;2023-06-10T08:28:01;4.25;;;3.88;;
25479;SDS011;13393;49.378;8.686;2023-06-10T08:30:28;4.32;;;3.92;;
25479;SDS011;13393;49.378;8.686;2023-06-10T08:32:55;6.53;;;4.05;;
25479;SDS011;13393;49.378;8.686;2023-06-10T08:35:21;4.30;;;3.90;;
25479;SDS011;13393;49.378;8.686;2023-06-10T08:37:48;4.40;;;4.00;;
25479;SDS011;13393;49.378;8.686;2023-06-10T08:40:15;6.03;;;4.15;;
25479;SDS011;13393;49.378;8.686;2023-06-10T08:42:43;4.32;;;4.03;;
25479;SDS011;13393;49.378;8.686;2023-06-10T08:45:12;5.10;;;4.43;;
25479;SDS011;13393;49.378;8.686;2023-06-10T08:47:44;4.53;;;3.88;;
25479;SDS011;13393;49.378;8.686;2023-06-10T08:50:10;6.60;;;4.28;;
25479;SDS011;13393;49.378;8.686;2023-06-10T08:52:37;4.93;;;4.45;;
25479;SDS011;13393;49.378;8.686;2023-06-10T08:55:08;5.75;;;4.38;;
25479;SDS011;13393;49.378;8.686;2023-06-10T08:57:36;5.25;;;4.10;;
25479;SDS011;13393;49.378;8.686;2023-06-10T09:00:03;6.18;;;4.40;;
25479;SDS011;13393;49.378;8.686;2023-06-10T09:02:29;4.60;;;4.20;;
25479;SDS011;13393;49.378;8.686;2023-06-10T09:04:57;4.05;;;3.75;;
25479;SDS011;13393;49.378;8.686;2023-06-10T09:07:24;4.60;;;4.20;;
25479;SDS011;13393;49.378;8.686;2023-06-10T09:09:51;5.28;;;4.40;;
25479;SDS011;13393;49.378;8.686;2023-06-10T09:12:18;5.85;;;4.57;;
25479;SDS011;13393;49.378;8.686;2023-06-10T09:14:45;6.00;;;4.22;;
25479;SDS011;13393;49.378;8.686;2023-06-10T09:17:11;4.35;;;3.95;;
25479;SDS011;13393;49.378;8.686;2023-06-10T09:19:37;4.32;;;3.75;;
25479;SDS011;13393;49.378;8.686;2023-06-10T09:22:05;4.90;;;4.22;;
25479;SDS011;13393;49.378;8.686;2023-06-10T09:24:32;4.60;;;4.03;;
25479;SDS011;13393;49.378;8.686;2023-06-10T09:27:01;4.47;;;4.07;;
25479;SDS011;13393;49.378;8.686;2023-06-10T09:29:28;5.25;;;4.30;;
25479;SDS011;13393;49.378;8.686;2023-06-10T09:31:54;4.68;;;4.10;;
25479;SDS011;13393;49.378;8.686;2023-06-10T09:34:24;4.55;;;4.15;;
25479;SDS011;13393;49.378;8.686;2023-06-10T09:36:50;4.65;;;4.22;;
25479;SDS011;13393;49.378;8.686;2023-06-10T09:39:18;7.05;;;4.15;;
25479;SDS011;13393;49.378;8.686;2023-06-10T09:41:46;5.10;;;4.05;;
25479;SDS011;13393;49.378;8.686;2023-06-10T09:44:12;6.13;;;3.97;;
25479;SDS011;13393;49.378;8.686;2023-06-10T09:46:40;4.43;;;4.05;;
25479;SDS011;13393;49.378;8.686;2023-06-10T09:49:06;4.30;;;3.90;;
25479;SDS011;13393;49.378;8.686;2023-06-10T09:51:33;5.05;;;4.10;;
25479;SDS011;13393;49.378;8.686;2023-06-10T09:53:59;5.68;;;4.07;;
25479;SDS011;13393;49.378;8.686;2023-06-10T09:56:33;4.47;;;3.88;;
25479;SDS011;13393;49.378;8.686;2023-06-10T09:59:00;5.45;;;4.45;;
25479;SDS011;13393;49.378;8.686;2023-06-10T10:01:27;5.40;;;4.03;;
25479;SDS011;13393;49.378;8.686;2023-06-10T10:03:53;4.85;;;4.45;;
25479;SDS011;13393;49.378;8.686;2023-06-10T10:06:20;4.72;;;4.15;;
25479;SDS011;13393;49.378;8.686;2023-06-10T10:08:47;5.25;;;4.32;;
25479;SDS011;13393;49.378;8.686;2023-06-10T10:11:13;4.47;;;4.07;;
25479;SDS011;13393;49.378;8.686;2023-06-10T10:13:41;5.22;;;3.88;;
25479;SDS011;13393;49.378;8.686;2023-06-10T10:16:09;5.72;;;4.25;;
25479;SDS011;13393;49.378;8.686;2023-06-10T10:18:37;4.50;;;4.13;;
25479;SDS011;13393;49.378;8.686;2023-06-10T10:21:05;4.50;;;3.97;;
25479;SDS011;13393;49.378;8.686;2023-06-10T10:23:34;4.25;;;3.90;;
25479;SDS011;13393;49.378;8.686;2023-06-10T10:26:04;3.88;;;3.58;;
25479;SDS011;13393;49.378;8.686;2023-06-10T10:28:34;4.20;;;3.80;;
25479;SDS011;13393;49.378;8.686;2023-06-10T10:31:05;4.93;;;3.72;;
25479;SDS011;13393;49.378;8.686;2023-06-10T10:33:36;3.97;;;3.67;;
25479;SDS011;13393;49.378;8.686;2023-06-10T10:36:06;4.45;;;3.90;;
25479;SDS011;13393;49.378;8.686;2023-06-10T10:38:33;4.03;;;3.72;;
25479;SDS011;13393;49.378;8.686;2023-06-10T10:40:59;5.50;;;4.05;;
25479;SDS011;13393;49.378;8.686;2023-06-10T10:43:26;5.45;;;4.22;;
25479;SDS011;13393;49.378;8.686;2023-06-10T10:46:00;4.75;;;3.70;;
25479;SDS011;13393;49.378;8.686;2023-06-10T10:48:28;7.93;;;4.28;;
25479;SDS011;13393;49.378;8.686;2023-06-10T10:50:59;8.20;;;4.53;;
25479;SDS011;13393;49.378;8.686;2023-06-10T10:53:25;4.45;;;4.05;;
25479;SDS011;13393;49.378;8.686;2023-06-10T10:55:57;5.15;;;4.07;;
25479;SDS011;13393;49.378;8.686;2023-06-10T10:58:24;5.18;;;4.05;;
25479;SDS011;13393;49.378;8.686;2023-06-10T11:00:50;4.93;;;4.00;;
25479;SDS011;13393;49.378;8.686;2023-06-10T11:03:17;4.70;;;3.92;;
25479;SDS011;13393;49.378;8.686;2023-06-10T11:05:45;4.50;;;3.97;;
25479;SDS011;13393;49.378;8.686;2023-06-10T11:08:14;4.13;;;3.78;;
25479;SDS011;13393;49.378;8.686;2023-06-10T11:10:40;5.75;;;3.58;;
25479;SDS011;13393;49.378;8.686;2023-06-10T11:13:08;3.70;;;3.40;;
25479;SDS011;13393;49.378;8.686;2023-06-10T11:15:38;4.35;;;3.75;;
25479;SDS011;13393;49.378;8.686;2023-06-10T11:18:11;5.50;;;3.67;;
25479;SDS011;13393;49.378;8.686;2023-06-10T11:20:46;4.53;;;3.35;;
25479;SDS011;13393;49.378;8.686;2023-06-10T11:23:30;4.15;;;3.13;;
25479;SDS011;13393;49.378;8.686;2023-06-10T11:26:13;4.80;;;3.78;;
25479;SDS011;13393;49.378;8.686;2023-06-10T11:28:40;3.83;;;3.40;;
25479;SDS011;13393;49.378;8.686;2023-06-10T11:31:06;4.28;;;3.97;;
25479;SDS011;13393;49.378;8.686;2023-06-10T11:33:32;5.47;;;3.50;;
25479;SDS011;13393;49.378;8.686;2023-06-10T11:36:00;3.50;;;3.20;;
25479;SDS011;13393;49.378;8.686;2023-06-10T11:38:26;3.58;;;3.00;;
25479;SDS011;13393;49.378;8.686;2023-06-10T11:40:54;3.50;;;3.13;;
25479;SDS011;13393;49.378;8.686;2023-06-10T11:43:21;3.70;;;3.22;;
25479;SDS011;13393;49.378;8.686;2023-06-10T11:45:53;4.68;;;3.50;;
25479;SDS011;13393;49.378;8.686;2023-06-10T11:48:19;4.35;;;3.25;;
25479;SDS011;13393;49.378;8.686;2023-06-10T11:50:46;3.30;;;3.00;;
25479;SDS011;13393;49.378;8.686;2023-06-10T11:53:13;3.15;;;2.80;;
25479;SDS011;13393;49.378;8.686;2023-06-10T11:55:41;3.38;;;3.08;;
25479;SDS011;13393;49.378;8.686;2023-06-10T11:58:11;3.20;;;2.90;;
25479;SDS011;13393;49.378;8.686;2023-06-10T12:00:43;3.33;;;3.00;;
25479;SDS011;13393;49.378;8.686;2023-06-10T12:03:09;3.60;;;2.90;;
25479;SDS011;13393;49.378;8.686;2023-06-10T12:05:36;4.22;;;3.10;;
25479;SDS011;13393;49.378;8.686;2023-06-10T12:08:07;2.55;;;2.35;;
25479;SDS011;13393;49.378;8.686;2023-06-10T12:10:39;3.00;;;2.78;;
25479;SDS011;13393;49.378;8.686;2023-06-10T12:13:06;3.72;;;2.40;;
25479;SDS011;13393;49.378;8.686;2023-06-10T12:15:32;2.47;;;2.38;;
25479;SDS011;13393;49.378;8.686;2023-06-10T12:17:59;2.65;;;2.45;;
25479;SDS011;13393;49.378;8.686;2023-06-10T12:20:26;2.88;;;2.67;;
25479;SDS011;13393;49.378;8.686;2023-06-10T12:22:53;2.90;;;2.60;;
25479;SDS011;13393;49.378;8.686;2023-06-10T12:25:23;4.05;;;3.00;;
25479;SDS011;13393;49.378;8.686;2023-06-10T12:27:52;3.00;;;2.80;;
25479;SDS011;13393;49.378;8.686;2023-06-10T12:30:19;3.38;;;2.97;;
25479;SDS011;13393;49.378;8.686;2023-06-10T12:32:46;4.43;;;2.85;;
25479;SDS011;13393;49.378;8.686;2023-06-10T12:35:13;4.93;;;2.90;;
25479;SDS011;13393;49.378;8.686;2023-06-10T12:37:40;3.92;;;2.88;;
25479;SDS011;13393;49.378;8.686;2023-06-10T12:40:07;3.63;;;3.10;;
25479;SDS011;13393;49.378;8.686;2023-06-10T12:42:33;6.10;;;3.30;;
25479;SDS011;13393;49.378;8.686;2023-06-10T12:45:03;3.80;;;3.33;;
25479;SDS011;13393;49.378;8.686;2023-06-10T12:47:31;3.17;;;2.97;;
25479;SDS011;13393;49.378;8.686;2023-06-10T12:49:59;2.50;;;2.30;;
25479;SDS011;13393;49.378;8.686;2023-06-10T12:52:25;3.25;;;2.95;;
25479;SDS011;13393;49.378;8.686;2023-06-10T12:54:52;3.85;;;3.10;;
25479;SDS011;13393;49.378;8.686;2023-06-10T12:57:19;2.92;;;2.72;;
25479;SDS011;13393;49.378;8.686;2023-06-10T12:59:45;3.88;;;3.05;;
25479;SDS011;13393;49.378;8.686;2023-06-10T13:02:18;3.00;;;2.80;;
25479;SDS011;13393;49.378;8.686;2023-06-10T13:04:45;3.47;;;2.97;;
25479;SDS011;13393;49.378;8.686;2023-06-10T13:07:12;3.20;;;2.90;;
25479;SDS011;13393;49.378;8.686;2023-06-10T13:09:38;4.07;;;2.78;;
25479;SDS011;13393;49.378;8.686;2023-06-10T13:12:05;2.90;;;2.60;;
25479;SDS011;13393;49.378;8.686;2023-06-10T13:14:33;3.22;;;2.67;;
25479;SDS011;13393;49.378;8.686;2023-06-10T13:16:59;2.70;;;2.50;;
25479;SDS011;13393;49.378;8.686;2023-06-10T13:19:27;2.97;;;2.67;;
25479;SDS011;13393;49.378;8.686;2023-06-10T13:21:53;2.88;;;2.65;;
25479;SDS011;13393;49.378;8.686;2023-06-10T13:24:19;3.28;;;2.30;;
25479;SDS011;13393;49.378;8.686;2023-06-10T13:26:46;2.75;;;2.55;;
25479;SDS011;13393;49.378;8.686;2023-06-10T13:29:12;2.40;;;2.20;;
25479;SDS011;13393;49.378;8.686;2023-06-10T13:31:39;2.90;;;2.60;;
25479;SDS011;13393;49.378;8.686;2023-06-10T13:34:05;4.22;;;2.67;;
25479;SDS011;13393;49.378;8.686;2023-06-10T13:36:33;2.70;;;2.40;;
25479;SDS011;13393;49.378;8.686;2023-06-10T13:39:00;3.20;;;2.45;;
25479;SDS011;13393;49.378;8.686;2023-06-10T13:41:26;4.50;;;2.85;;
25479;SDS011;13393;49.378;8.686;2023-06-10T13:43:55;2.53;;;2.30;;
25479;SDS011;13393;49.378;8.686;2023-06-10T13:46:21;3.03;;;2.50;;
25479;SDS011;13393;49.378;8.686;2023-06-10T13:48:48;2.78;;;2.58;;
25479;SDS011;13393;49.378;8.686;2023-06-10T13:51:14;2.53;;;2.22;;
25479;SDS011;13393;49.378;8.686;2023-06-10T13:53:42;2.67;;;2.47;;
25479;SDS011;13393;49.378;8.686;2023-06-10T13:56:08;3.13;;;2.55;;
25479;SDS011;13393;49.378;8.686;2023-06-10T13:58:35;2.58;;;2.38;;
25479;SDS011;13393;49.378;8.686;2023-06-10T14:01:04;2.53;;;2.33;;
25479;SDS011;13393;49.378;8.686;2023-06-10T14:03:30;2.60;;;2.40;;
25479;SDS011;13393;49.378;8.686;2023-06-10T14:05:56;2.85;;;2.50;;
25479;SDS011;13393;49.378;8.686;2023-06-10T14:08:23;3.33;;;2.25;;
25479;SDS011;13393;49.378;8.686;2023-06-10T14:10:50;2.60;;;2.40;;
25479;SDS011;13393;49.378;8.686;2023-06-10T14:13:17;2.92;;;2.55;;
25479;SDS011;13393;49.378;8.686;2023-06-10T14:15:43;2.58;;;2.38;;
25479;SDS011;13393;49.378;8.686;2023-06-10T14:18:09;2.72;;;2.20;;
25479;SDS011;13393;49.378;8.686;2023-06-10T14:20:36;2.80;;;2.60;;
25479;SDS011;13393;49.378;8.686;2023-06-10T14:23:02;2.63;;;2.20;;
25479;SDS011;13393;49.378;8.686;2023-06-10T14:25:28;5.43;;;2.63;;
25479;SDS011;13393;49.378;8.686;2023-06-10T14:27:56;2.47;;;2.28;;
25479;SDS011;13393;49.378;8.686;2023-06-10T14:30:22;3.22;;;2.40;;
25479;SDS011;13393;49.378;8.686;2023-06-10T14:32:49;3.00;;;2.70;;
25479;SDS011;13393;49.378;8.686;2023-06-10T14:35:15;5.07;;;2.58;;
25479;SDS011;13393;49.378;8.686;2023-06-10T14:37:41;3.08;;;2.78;;
25479;SDS011;13393;49.378;8.686;2023-06-10T14:40:08;4.53;;;4.22;;
25479;SDS011;13393;49.378;8.686;2023-06-10T14:42:34;3.30;;;3.00;;
25479;SDS011;13393;49.378;8.686;2023-06-10T14:45:02;3.05;;;2.70;;
25479;SDS011;13393;49.378;8.686;2023-06-10T14:47:28;2.20;;;2.10;;